Time;durP1;ratioP1;P1;durP2;ratioP2;P2;SDS_P1;SDS_P2;PMS_P1;PMS_P2;Temp;Humidity;BMP_temperature;BMP_pressure;BME280_temperature;BME280_humidity;BME280_pressure;Samples;Min_cycle;Max_cycle;Signal;HPM_P1;HPM_P2
2023/07/08 00:01:13;;;;;;;8.03;5.60;;;;;;;23.83;35.16;151989.06;4993318;28;20233;-64
2023/07/08 00:03:41;;;;;;;12.67;6.40;;;;;;;23.74;36.33;151967.69;4995462;28;20327;-64
2023/07/08 00:06:17;;;;;;;11.87;5.90;;;;;;;23.80;34.74;151981.53;4992694;28;20239;-64
2023/07/08 00:08:43;;;;;;;12.47;6.07;;;;;;;23.76;34.97;151970.22;5011880;28;20593;-64
2023/07/08 00:11:12;;;;;;;10.47;5.97;;;;;;;23.97;34.35;152022.94;4992539;28;21317;-64
2023/07/08 00:13:39;;;;;;;9.37;5.60;;;;;;;24.05;34.19;152041.78;4992375;28;20738;-64
2023/07/08 00:16:11;;;;;;;9.47;5.70;;;;;;;24.23;33.61;152084.47;4994363;28;20236;-64
2023/07/08 00:18:38;;;;;;;11.50;5.73;;;;;;;24.21;33.64;152079.44;4995702;28;20232;-64
2023/07/08 00:21:15;;;;;;;9.17;5.93;;;;;;;24.29;33.25;152099.53;4992662;28;20685;-64
2023/07/08 00:23:41;;;;;;;11.57;6.17;;;;;;;24.18;33.58;152073.19;4996328;28;20231;-64
2023/07/08 00:26:14;;;;;;;11.80;6.17;;;;;;;24.14;34.36;152064.38;4994132;28;20244;-64
2023/07/08 00:28:40;;;;;;;9.73;5.80;;;;;;;24.10;34.05;152053.13;4990868;28;20255;-64
2023/07/08 00:31:11;;;;;;;10.80;6.13;;;;;;;24.12;34.05;152058.13;4992944;28;20240;-64
2023/07/08 00:33:38;;;;;;;10.43;5.73;;;;;;;24.16;33.50;152068.19;4992816;28;20232;-64
2023/07/08 00:36:32;;;;;;;10.73;5.87;;;;;;;24.04;34.15;152039.28;4992846;28;20243;-64
2023/07/08 00:38:58;;;;;;;10.87;6.40;;;;;;;23.91;34.15;152006.59;4991652;28;20310;-64
2023/07/08 00:41:29;;;;;;;13.20;6.40;;;;;;;23.85;34.33;151992.81;5010299;28;20232;-64
2023/07/08 00:43:58;;;;;;;11.83;5.87;;;;;;;23.65;35.64;151943.88;4990598;28;20240;-64
2023/07/08 00:46:35;;;;;;;14.73;6.00;;;;;;;23.63;35.94;151940.09;4996143;28;20751;-64
2023/07/08 00:49:15;;;;;;;10.13;6.13;;;;;;;23.48;35.46;151903.69;4993013;28;20573;-64
2023/07/08 00:51:43;;;;;;;9.23;6.20;;;;;;;23.60;35.47;151932.56;4996205;28;20233;-64
2023/07/08 00:54:12;;;;;;;10.67;6.43;;;;;;;23.41;35.69;151887.38;5007811;28;20316;-64
2023/07/08 00:56:43;;;;;;;9.50;5.90;;;;;;;23.20;36.94;151834.66;4993653;28;20327;-64
2023/07/08 00:59:16;;;;;;;10.73;5.90;;;;;;;23.02;37.65;151790.72;5006188;28;20221;-64
2023/07/08 01:01:44;;;;;;;12.30;6.00;;;;;;;22.85;38.16;151750.56;4993921;28;20224;-64
2023/07/08 01:04:15;;;;;;;10.73;5.90;;;;;;;22.75;38.27;151726.75;4992990;28;20217;-64
2023/07/08 01:06:46;;;;;;;9.47;5.90;;;;;;;22.60;38.61;151689.09;4992680;28;20215;-64
2023/07/08 01:09:16;;;;;;;10.80;5.70;;;;;;;22.63;38.77;151697.91;4991644;28;20231;-64
2023/07/08 01:11:43;;;;;;;9.40;5.43;;;;;;;22.68;37.83;151709.19;5009340;28;20273;-64
2023/07/08 01:14:13;;;;;;;11.33;6.07;;;;;;;22.80;37.08;151739.28;4991914;28;20657;-64
2023/07/08 01:16:40;;;;;;;11.93;6.47;;;;;;;22.77;37.74;151730.53;4986179;28;20224;-64
2023/07/08 01:19:15;;;;;;;9.20;5.37;;;;;;;22.70;37.85;151714.19;5008344;28;20234;-64
2023/07/08 01:21:46;;;;;;;9.93;6.00;;;;;;;22.95;36.43;151774.44;4991763;28;20235;-64
2023/07/08 01:24:13;;;;;;;11.07;6.23;;;;;;;23.12;36.39;151817.09;5005972;28;20232;-64
2023/07/08 01:26:44;;;;;;;9.23;5.57;;;;;;;22.98;36.95;151783.19;4992714;28;20289;-64
2023/07/08 01:29:12;;;;;;;9.33;5.40;;;;;;;22.83;38.09;151746.81;4984168;28;21987;-64
2023/07/08 01:31:40;;;;;;;9.87;5.87;;;;;;;22.78;38.01;151734.28;4996741;28;20235;-64
2023/07/08 01:34:11;;;;;;;9.80;6.00;;;;;;;22.64;38.13;151699.16;4988282;28;20237;-64
2023/07/08 01:36:43;;;;;;;9.07;5.57;;;;;;;22.66;37.40;151704.16;4992317;28;20247;-64
2023/07/08 01:39:17;;;;;;;11.73;6.63;;;;;;;22.82;36.71;151744.31;5004645;28;20719;-64
2023/07/08 01:41:44;;;;;;;9.67;5.60;;;;;;;22.83;36.89;151745.53;4998731;28;21916;-64
2023/07/08 01:44:22;;;;;;;11.80;6.10;;;;;;;22.84;36.77;151748.06;4991425;28;20236;-64
2023/07/08 01:46:48;;;;;;;9.57;5.90;;;;;;;22.75;37.47;151725.50;4993716;28;20230;-64
2023/07/08 01:49:15;;;;;;;11.00;6.27;;;;;;;22.69;37.49;151711.69;4981116;28;20236;-64
2023/07/08 01:51:42;;;;;;;10.60;6.00;;;;;;;22.59;38.84;151686.59;4992582;28;20282;-64
2023/07/08 01:54:08;;;;;;;11.13;6.30;;;;;;;22.41;39.08;151643.91;4990920;28;20238;-64
2023/07/08 01:56:36;;;;;;;7.80;5.60;;;;;;;22.19;40.25;151590.00;4985752;28;20750;-64
2023/07/08 01:59:03;;;;;;;9.93;6.43;;;;;;;21.95;41.07;151533.56;4992350;28;20227;-64
2023/07/08 02:01:29;;;;;;;10.77;6.00;;;;;;;21.79;41.85;151493.44;4997658;28;20233;-64
2023/07/08 02:03:56;;;;;;;10.07;5.53;;;;;;;21.59;42.15;151445.75;4992826;28;20236;-64
2023/07/08 02:06:22;;;;;;;10.33;5.80;;;;;;;21.44;43.61;151409.41;4987868;28;20270;-64
2023/07/08 02:08:50;;;;;;;11.87;5.53;;;;;;;21.29;44.08;151373.03;4993615;28;20231;-64
2023/07/08 02:11:16;;;;;;;11.20;6.33;;;;;;;21.17;44.71;151344.22;5010788;28;20235;-64
2023/07/08 02:13:44;;;;;;;12.00;6.57;;;;;;;21.05;45.00;151315.41;4997346;28;20220;-64
2023/07/08 02:16:11;;;;;;;14.37;6.00;;;;;;;21.13;43.25;151334.19;5004055;28;21299;-64
2023/07/08 02:18:37;;;;;;;11.13;6.20;;;;;;;21.37;41.27;151391.88;4998162;28;20601;-64
2023/07/08 02:21:12;;;;;;;10.07;5.43;;;;;;;21.46;43.31;151414.44;4995588;28;20238;-64
2023/07/08 02:23:39;;;;;;;10.53;5.90;;;;;;;21.67;41.34;151465.84;4987415;28;20220;-64
2023/07/08 02:26:11;;;;;;;13.17;6.10;;;;;;;21.60;41.58;151448.25;4992267;28;29898;-64
2023/07/08 02:28:37;;;;;;;9.50;5.70;;;;;;;21.77;40.32;151489.66;4998005;28;20246;-64
2023/07/08 02:31:07;;;;;;;11.80;5.53;;;;;;;21.92;39.81;151526.06;4995870;28;20238;-62
2023/07/08 02:33:34;;;;;;;9.43;5.33;;;;;;;22.00;40.28;151544.84;4997787;28;20737;-62
2023/07/08 02:36:01;;;;;;;10.27;5.40;;;;;;;21.98;40.95;151539.81;5009484;28;20254;-62
2023/07/08 02:38:27;;;;;;;11.63;5.43;;;;;;;21.91;41.73;151523.53;4998529;28;20235;-62
2023/07/08 02:40:54;;;;;;;11.37;5.30;;;;;;;21.81;43.63;151498.47;4996037;28;21834;-63
2023/07/08 02:43:21;;;;;;;8.37;5.53;;;;;;;21.88;41.91;151514.75;4997067;28;20322;-62
2023/07/08 02:45:50;;;;;;;7.83;5.10;;;;;;;21.88;42.35;151516.00;4997872;28;20260;-62
2023/07/08 02:48:18;;;;;;;9.87;6.00;;;;;;;22.02;41.34;151549.84;4984967;28;20235;-63
2023/07/08 02:50:44;;;;;;;12.53;5.67;;;;;;;22.03;41.47;151551.13;5009823;28;20219;-63
2023/07/08 02:53:11;;;;;;;12.47;5.17;;;;;;;22.01;40.88;151546.13;4992560;28;23053;-62
2023/07/08 02:55:38;;;;;;;10.50;5.50;;;;;;;22.01;41.76;151546.13;4997912;28;20219;-62
2023/07/08 02:58:05;;;;;;;7.90;5.33;;;;;;;21.98;40.75;151539.81;4992432;28;20596;-62
2023/07/08 03:00:32;;;;;;;11.60;5.33;;;;;;;21.95;41.70;151532.28;4995927;28;20250;-62
2023/07/08 03:02:59;;;;;;;9.47;5.80;;;;;;;21.83;42.80;151504.72;4991920;28;20678;-62
2023/07/08 03:05:27;;;;;;;14.30;6.23;;;;;;;21.67;43.33;151464.63;5015185;28;20376;-62
2023/07/08 03:07:54;;;;;;;11.80;5.90;;;;;;;21.53;44.11;151431.97;4993667;28;20235;-62
2023/07/08 03:10:20;;;;;;;10.60;5.17;;;;;;;21.37;44.32;151393.09;4993114;28;20230;-63
2023/07/08 03:12:47;;;;;;;14.37;6.30;;;;;;;21.23;45.00;151359.28;5012610;28;20225;-62
2023/07/08 03:15:14;;;;;;;9.77;5.77;;;;;;;21.08;46.46;151321.66;4991543;28;20315;-62
2023/07/08 03:17:40;;;;;;;8.57;5.27;;;;;;;20.91;48.14;151280.31;5012988;28;20231;-62
2023/07/08 03:20:08;;;;;;;9.07;5.73;;;;;;;20.75;49.61;151242.69;4989829;28;20603;-62
2023/07/08 03:22:36;;;;;;;8.83;5.30;;;;;;;20.60;50.00;151206.34;4990829;28;20873;-62
2023/07/08 03:25:03;;;;;;;14.03;5.73;;;;;;;20.43;51.16;151163.75;4990047;28;20249;-62
2023/07/08 03:27:30;;;;;;;8.93;5.47;;;;;;;20.27;52.34;151124.88;5004477;28;20227;-62
2023/07/08 03:29:57;;;;;;;8.77;5.70;;;;;;;20.17;52.89;151102.31;5002818;28;20233;-62
2023/07/08 03:32:25;;;;;;;8.97;5.20;;;;;;;20.01;53.37;151062.28;5180111;23;20319;-62
2023/07/08 03:34:52;;;;;;;10.17;5.73;;;;;;;19.85;54.58;151023.38;4973058;28;20740;-62
2023/07/08 03:37:20;;;;;;;10.00;5.47;;;;;;;19.76;54.69;151002.09;4971061;28;20313;-63
2023/07/08 03:39:48;;;;;;;8.83;5.43;;;;;;;19.65;55.62;150975.78;4969880;28;20324;-63
2023/07/08 03:42:14;;;;;;;11.83;6.27;;;;;;;19.53;55.64;150947.00;4959753;28;20250;-63
2023/07/08 03:44:41;;;;;;;10.97;6.03;;;;;;;19.47;55.89;150931.97;4976009;28;20285;-63
2023/07/08 03:47:08;;;;;;;12.87;5.93;;;;;;;19.41;56.16;150916.94;4955674;28;20243;-63
2023/07/08 03:49:35;;;;;;;9.53;5.87;;;;;;;19.39;55.19;150911.94;4959017;28;20244;-63
2023/07/08 03:52:02;;;;;;;11.60;5.87;;;;;;;19.37;54.88;150908.19;4956200;28;20664;-63
2023/07/08 03:54:28;;;;;;;8.87;5.37;;;;;;;19.32;55.15;150896.91;4949854;28;20238;-63
2023/07/08 03:56:59;;;;;;;9.57;5.60;;;;;;;19.29;54.78;150889.38;4972275;28;20282;-63
2023/07/08 03:59:27;;;;;;;9.10;5.33;;;;;;;19.30;54.37;150891.91;4960655;28;20264;-64
2023/07/08 04:01:56;;;;;;;12.27;6.13;;;;;;;19.33;55.23;150899.41;4977400;28;20258;-64
2023/07/08 04:04:24;;;;;;;14.10;6.53;;;;;;;19.36;56.68;150904.41;4959520;28;20232;-64
2023/07/08 04:06:51;;;;;;;13.37;5.93;;;;;;;19.43;57.19;150921.94;4959230;28;20230;-64
2023/07/08 04:09:18;;;;;;;11.67;5.60;;;;;;;19.39;57.47;150913.22;4957418;28;20230;-64
2023/07/08 04:11:44;;;;;;;13.23;6.17;;;;;;;19.40;56.66;150914.44;4956879;28;20227;-64
2023/07/08 04:14:13;;;;;;;12.00;5.83;;;;;;;19.35;56.67;150901.91;4962664;28;20582;-64
2023/07/08 04:16:51;;;;;;;11.80;6.00;;;;;;;19.35;56.97;150903.19;4957721;28;20236;-64
2023/07/08 04:19:17;;;;;;;10.53;5.90;;;;;;;19.31;57.07;150893.16;4948053;28;20228;-65
2023/07/08 04:21:45;;;;;;;10.23;5.80;;;;;;;19.38;56.04;150910.72;4950869;28;20281;-64
2023/07/08 04:24:13;;;;;;;14.17;6.83;;;;;;;19.43;56.32;150921.94;4939117;28;20240;-64
2023/07/08 04:26:41;;;;;;;8.50;5.17;;;;;;;19.39;55.79;150911.94;4951700;28;20743;-64
2023/07/08 04:29:16;;;;;;;12.00;5.90;;;;;;;19.37;57.06;150906.94;4946461;28;20219;-64
2023/07/08 04:31:42;;;;;;;12.07;6.13;;;;;;;19.28;58.68;150885.66;4952608;28;20232;-64
2023/07/08 04:34:10;;;;;;;12.87;5.70;;;;;;;19.37;57.20;150908.19;4945066;28;20234;-64
2023/07/08 04:36:37;;;;;;;15.20;6.07;;;;;;;19.36;57.37;150905.69;4934214;28;20228;-64
2023/07/08 04:39:05;;;;;;;14.60;6.40;;;;;;;19.36;58.47;150904.41;4938459;28;20643;-65
2023/07/08 04:41:32;;;;;;;11.57;6.20;;;;;;;19.66;54.31;150977.06;4949572;28;20231;-64
2023/07/08 04:44:02;;;;;;;14.63;6.00;;;;;;;19.99;51.87;151057.28;4954336;28;20303;-64
2023/07/08 04:46:37;;;;;;;14.77;6.03;;;;;;;20.29;50.40;151131.16;4950473;28;20221;-64
2023/07/08 04:49:05;;;;;;;10.83;5.77;;;;;;;20.60;48.96;151206.34;4939598;28;20238;-64
2023/07/08 04:51:32;;;;;;;12.57;5.70;;;;;;;20.86;47.99;151267.78;4953765;28;20306;-64
2023/07/08 04:53:59;;;;;;;9.67;5.20;;;;;;;21.23;47.06;151358.00;4926364;28;20234;-64
2023/07/08 04:56:27;;;;;;;15.43;6.10;;;;;;;21.59;46.68;151444.53;4957664;28;20286;-64
2023/07/08 04:58:53;;;;;;;10.47;4.83;;;;;;;21.90;46.15;151519.75;4942670;28;20283;-64
2023/07/08 05:01:20;;;;;;;9.83;4.80;;;;;;;22.24;46.07;151602.53;4958258;28;20275;-64
2023/07/08 05:03:48;;;;;;;8.50;4.57;;;;;;;22.74;44.95;151723.00;4951792;28;20233;-64
2023/07/08 05:06:14;;;;;;;7.87;4.43;;;;;;;23.12;45.09;151817.09;4945589;28;20288;-64
2023/07/08 05:08:41;;;;;;;9.20;4.43;;;;;;;23.34;44.60;151869.78;4946715;28;20226;-64
2023/07/08 05:11:11;;;;;;;7.53;4.57;;;;;;;23.46;44.81;151898.69;4946993;28;20240;-64
2023/07/08 05:13:37;;;;;;;8.07;4.43;;;;;;;23.59;44.35;151930.03;4946117;28;20749;-64
2023/07/08 05:16:08;;;;;;;7.53;3.90;;;;;;;23.62;44.90;151937.56;4948591;28;20394;-64
2023/07/08 05:18:34;;;;;;;8.43;3.30;;;;;;;23.68;45.51;151951.41;4949596;28;20288;-64
2023/07/08 05:21:03;;;;;;;7.40;3.77;;;;;;;23.82;45.51;151985.28;4921140;28;20241;-64
2023/07/08 05:23:29;;;;;;;7.20;3.17;;;;;;;23.81;45.78;151984.03;4937528;28;20698;-64
2023/07/08 05:26:00;;;;;;;7.27;3.40;;;;;;;23.74;46.45;151967.69;4947903;28;20217;-64
2023/07/08 05:28:27;;;;;;;5.03;3.13;;;;;;;23.74;46.51;151966.47;4945655;28;20232;-64
2023/07/08 05:30:55;;;;;;;7.53;3.50;;;;;;;23.67;47.77;151948.88;4949120;28;20616;-64
2023/07/08 05:33:21;;;;;;;6.80;2.83;;;;;;;23.66;48.23;151947.63;4943713;28;20322;-64
2023/07/08 05:35:48;;;;;;;8.37;2.80;;;;;;;23.67;48.43;151948.88;4955636;28;20233;-64
2023/07/08 05:38:16;;;;;;;5.23;2.53;;;;;;;23.71;49.24;151958.94;4950123;28;21373;-64
2023/07/08 05:40:43;;;;;;;7.47;2.87;;;;;;;23.81;49.53;151982.75;4952906;28;20229;-64
2023/07/08 05:43:09;;;;;;;7.33;2.80;;;;;;;23.94;49.26;152014.13;4948595;28;20239;-64
2023/07/08 05:45:36;;;;;;;5.87;2.77;;;;;;;23.98;48.09;152024.16;4956671;28;20236;-65
2023/07/08 05:48:03;;;;;;;4.13;2.40;;;;;;;24.28;48.67;152097.03;4942535;28;20226;-64
2023/07/08 05:50:29;;;;;;;5.83;2.73;;;;;;;24.36;47.59;152115.88;4952230;28;20230;-64
2023/07/08 05:52:56;;;;;;;5.07;2.43;;;;;;;24.44;46.94;152137.22;4954300;28;20242;-64
2023/07/08 05:55:24;;;;;;;5.03;3.13;;;;;;;24.58;47.13;152171.09;4944219;29;20237;-64
2023/07/08 05:57:51;;;;;;;12.73;2.37;;;;;;;24.68;46.78;152194.97;4950024;28;20242;-64
2023/07/08 06:00:17;;;;;;;7.73;2.30;;;;;;;24.76;46.65;152213.84;4949862;28;20809;-65
2023/07/08 06:02:44;;;;;;;4.63;2.23;;;;;;;24.88;46.27;152244.00;4953316;28;20244;-64
2023/07/08 06:05:11;;;;;;;5.60;2.50;;;;;;;25.11;46.13;152297.97;4949270;28;20407;-65
2023/07/08 06:07:37;;;;;;;7.20;2.70;;;;;;;25.29;44.64;152343.19;4947569;28;20237;-65
2023/07/08 06:10:04;;;;;;;4.17;2.27;;;;;;;25.18;44.84;152315.56;4951277;28;20707;-65
2023/07/08 06:12:32;;;;;;;4.57;2.03;;;;;;;25.34;45.88;152354.53;4948785;28;20239;-65
2023/07/08 06:14:59;;;;;;;3.93;2.23;;;;;;;25.29;43.74;152341.97;4952681;28;20754;-64
2023/07/08 06:17:26;;;;;;;4.93;2.53;;;;;;;25.06;45.74;152286.69;4955781;28;20240;-65
2023/07/08 06:19:52;;;;;;;5.85;2.47;;;;;;;25.03;45.20;152280.38;4958039;28;20222;-64
2023/07/08 06:22:19;;;;;;;5.87;2.47;;;;;;;25.10;44.11;152296.75;4951255;28;20296;-64
2023/07/08 06:24:47;;;;;;;3.37;2.50;;;;;;;24.99;45.72;152269.09;4941511;28;20237;-64
2023/07/08 06:27:14;;;;;;;3.07;2.10;;;;;;;25.11;45.44;152297.97;4940209;28;20918;-64
2023/07/08 06:29:42;;;;;;;7.60;2.70;;;;;;;24.78;46.07;152218.88;4947192;28;20257;-64
2023/07/08 06:32:09;;;;;;;5.70;2.17;;;;;;;24.79;45.71;152221.38;4957174;28;20288;-64
2023/07/08 06:34:36;;;;;;;6.90;2.90;;;;;;;24.95;45.67;152260.28;4960191;28;20233;-64
2023/07/08 06:37:02;;;;;;;5.33;2.83;;;;;;;25.01;45.94;152275.38;4948979;28;20291;-64
2023/07/08 06:39:29;;;;;;;4.87;2.40;;;;;;;25.09;45.07;152294.22;4963208;28;20722;-64
2023/07/08 06:41:55;;;;;;;5.53;2.33;;;;;;;25.04;46.74;152282.91;4951023;28;20650;-64
2023/07/08 06:44:27;;;;;;;3.93;2.30;;;;;;;24.93;45.55;152255.25;4944003;28;20240;-64
2023/07/08 06:46:55;;;;;;;6.67;2.43;;;;;;;25.25;44.81;152333.16;4960671;28;20291;-64
2023/07/08 06:49:21;;;;;;;3.50;2.30;;;;;;;25.30;45.60;152344.47;4963425;28;20237;-64
2023/07/08 06:51:48;;;;;;;7.83;2.60;;;;;;;25.37;45.76;152360.78;4961442;28;20232;-64
2023/07/08 06:54:14;;;;;;;4.90;2.30;;;;;;;25.20;46.13;152321.88;4952836;28;20241;-64
2023/07/08 06:56:42;;;;;;;5.90;2.17;;;;;;;25.10;46.57;152296.75;4957048;28;20305;-64
2023/07/08 06:59:09;;;;;;;4.03;1.90;;;;;;;25.17;47.87;152314.31;4949005;28;20233;-64
2023/07/08 07:01:37;;;;;;;3.80;2.23;;;;;;;25.52;45.53;152397.25;4957895;28;20229;-64
2023/07/08 07:04:05;;;;;;;5.20;2.50;;;;;;;25.59;45.94;152416.13;4957571;28;20778;-64
2023/07/08 07:06:32;;;;;;;4.27;2.40;;;;;;;25.57;46.00;152411.09;4946870;28;20236;-64
2023/07/08 07:08:58;;;;;;;8.00;2.57;;;;;;;25.58;46.09;152412.31;4950114;28;20231;-64
2023/07/08 07:11:25;;;;;;;4.30;2.30;;;;;;;25.44;45.79;152378.38;4949392;28;20238;-64
2023/07/08 07:13:51;;;;;;;5.43;2.70;;;;;;;25.43;47.37;152377.16;4959614;28;20230;-64
2023/07/08 07:16:18;;;;;;;4.07;2.20;;;;;;;25.53;47.89;152401.03;4949226;28;20328;-64
2023/07/08 07:18:45;;;;;;;5.70;2.43;;;;;;;25.25;50.77;152331.91;4960288;28;20228;-64
2023/07/08 07:21:13;;;;;;;7.10;2.60;;;;;;;25.49;50.84;152391.00;4950303;28;20242;-64
2023/07/08 07:23:40;;;;;;;4.90;2.20;;;;;;;25.33;51.12;152352.00;4958869;28;20229;-64
2023/07/08 07:26:12;;;;;;;7.97;2.47;;;;;;;25.39;51.67;152365.81;4951612;28;20961;-64
2023/07/08 07:28:38;;;;;;;6.73;2.47;;;;;;;25.34;51.10;152354.53;4947592;28;20264;-64
2023/07/08 07:31:11;;;;;;;5.30;2.60;;;;;;;25.24;52.40;152329.41;4946064;28;20237;-64
2023/07/08 07:33:38;;;;;;;8.40;2.57;;;;;;;25.27;53.15;152336.94;4949884;28;20554;-64
2023/07/08 07:36:08;;;;;;;6.05;2.30;;;;;;;25.63;47.68;152426.16;4938189;29;20232;-64
2023/07/08 07:38:36;;;;;;;5.00;2.20;;;;;;;25.99;48.31;152512.84;4952219;28;20231;-64
2023/07/08 07:41:06;;;;;;;4.70;2.13;;;;;;;25.60;50.32;152417.34;4955759;28;20275;-64
2023/07/08 07:43:33;;;;;;;5.17;2.33;;;;;;;26.02;49.46;152520.38;4938703;29;20233;-64
2023/07/08 07:45:59;;;;;;;3.40;2.43;;;;;;;26.17;49.81;152555.63;4946489;28;20229;-64
2023/07/08 07:48:26;;;;;;;5.60;2.40;;;;;;;26.67;48.45;152677.53;4944604;28;20302;-64
2023/07/08 07:50:52;;;;;;;3.75;2.30;;;;;;;26.73;49.15;152691.34;4947312;28;20969;-64
2023/07/08 07:53:19;;;;;;;4.57;2.17;;;;;;;27.07;49.33;152775.59;4943572;28;20293;-64
2023/07/08 07:55:47;;;;;;;5.38;2.35;;;;;;;27.17;46.32;152798.22;4955075;28;20304;-64
2023/07/08 07:58:13;;;;;;;7.43;2.50;;;;;;;27.03;47.96;152764.31;4949897;28;20249;-64
2023/07/08 08:00:40;;;;;;;8.05;2.63;;;;;;;27.11;46.74;152785.66;4945525;28;20223;-64
2023/07/08 08:03:07;;;;;;;4.28;2.30;;;;;;;26.93;47.57;152740.44;4942143;28;20242;-64
2023/07/08 08:05:34;;;;;;;3.67;2.05;;;;;;;26.66;47.91;152676.25;4952038;28;20229;-64
2023/07/08 08:08:00;;;;;;;6.28;2.15;;;;;;;26.14;48.87;152548.09;4949233;28;20263;-64
2023/07/08 08:10:27;;;;;;;6.18;2.40;;;;;;;26.22;49.16;152569.44;4955017;28;20240;-64
2023/07/08 08:12:55;;;;;;;7.30;2.72;;;;;;;26.28;49.42;152582.00;4954962;28;20876;-64
2023/07/08 08:15:22;;;;;;;6.93;2.83;;;;;;;26.03;50.34;152521.63;4954064;28;20367;-64
2023/07/08 08:17:51;;;;;;;6.63;2.95;;;;;;;25.88;50.52;152485.19;4961703;28;20286;-64
2023/07/08 08:20:19;;;;;;;7.88;2.75;;;;;;;25.93;50.20;152497.75;4958261;28;20232;-64
2023/07/08 08:22:46;;;;;;;5.70;2.50;;;;;;;25.96;50.56;152504.06;4944092;28;20602;-64
2023/07/08 08:25:13;;;;;;;4.45;2.58;;;;;;;25.63;50.76;152424.88;4942087;28;20717;-64
2023/07/08 08:27:39;;;;;;;5.63;2.50;;;;;;;25.64;51.43;152427.41;4946999;28;20290;-64
2023/07/08 08:30:08;;;;;;;5.40;2.30;;;;;;;25.80;50.97;152466.38;4939289;28;20715;-64
2023/07/08 08:32:35;;;;;;;6.15;2.38;;;;;;;25.96;50.88;152505.31;4952090;28;20727;-64
2023/07/08 08:35:01;;;;;;;5.72;2.60;;;;;;;26.21;50.13;152565.69;4941892;28;20240;-64
2023/07/08 08:37:28;;;;;;;5.63;2.40;;;;;;;26.33;49.92;152594.56;4951061;28;20259;-64
2023/07/08 08:39:55;;;;;;;6.13;2.60;;;;;;;26.40;49.27;152610.94;4947727;28;20233;-64
2023/07/08 08:42:27;;;;;;;4.77;2.20;;;;;;;26.09;49.37;152537.97;4942652;28;20249;-64
2023/07/08 08:44:53;;;;;;;5.95;2.25;;;;;;;26.44;49.02;152622.22;4947018;28;20281;-64
2023/07/08 08:47:32;;;;;;;6.80;2.50;;;;;;;26.47;49.35;152628.53;4954656;28;20659;-64
2023/07/08 08:50:04;;;;;;;4.28;2.00;;;;;;;26.56;49.18;152651.09;4956517;28;20786;-64
2023/07/08 08:52:31;;;;;;;5.50;2.10;;;;;;;26.30;50.15;152588.31;4949085;28;20287;-64
2023/07/08 08:54:58;;;;;;;5.43;2.70;;;;;;;26.42;49.63;152615.97;4952910;28;20238;-64
2023/07/08 08:57:37;;;;;;;5.82;2.30;;;;;;;26.47;49.19;152628.53;4942052;28;20286;-64
2023/07/08 09:00:05;;;;;;;6.80;2.43;;;;;;;26.34;49.54;152597.09;4952217;28;20592;-64
2023/07/08 09:02:40;;;;;;;6.97;2.03;;;;;;;26.06;50.94;152529.16;4945274;28;20236;-64
2023/07/08 09:05:09;;;;;;;5.17;2.37;;;;;;;26.44;49.49;152620.97;4947538;28;20223;-64
2023/07/08 09:07:45;;;;;;;4.63;2.10;;;;;;;26.57;50.23;152653.63;4953016;28;20248;-64
2023/07/08 09:10:30;;;;;;;4.33;2.30;;;;;;;26.55;47.70;152647.34;4947379;28;20298;-64
2023/07/08 09:12:58;;;;;;;5.95;2.08;;;;;;;26.39;49.77;152609.66;4953454;28;20236;-64
2023/07/08 09:15:27;;;;;;;3.83;1.80;;;;;;;26.31;48.75;152590.81;4957097;28;20294;-64
2023/07/08 09:18:01;;;;;;;5.40;2.00;;;;;;;26.26;48.58;152578.25;4947508;28;20313;-64
2023/07/08 09:20:29;;;;;;;6.30;2.10;;;;;;;26.23;48.93;152570.72;4950651;28;20239;-64
2023/07/08 09:23:03;;;;;;;4.70;2.30;;;;;;;26.43;48.93;152619.69;4942838;28;20240;-65
2023/07/08 09:25:35;;;;;;;6.40;2.00;;;;;;;26.43;48.96;152618.47;4950594;28;20219;-65
2023/07/08 09:28:03;;;;;;;11.70;3.03;;;;;;;26.51;48.64;152639.81;4955912;28;20232;-65
2023/07/08 09:30:30;;;;;;;6.60;2.20;;;;;;;26.43;49.28;152619.69;4946451;28;20287;-65
2023/07/08 09:33:02;;;;;;;5.47;2.20;;;;;;;26.46;48.94;152627.25;4950115;28;20220;-64
2023/07/08 09:35:38;;;;;;;3.08;1.80;;;;;;;26.61;47.52;152662.44;4947081;28;20287;-64
2023/07/08 09:38:08;;;;;;;5.97;1.80;;;;;;;26.55;47.16;152647.34;4955057;28;20226;-64
2023/07/08 09:40:35;;;;;;;3.13;1.98;;;;;;;26.71;46.98;152687.59;4953968;28;20330;-64
2023/07/08 09:43:04;;;;;;;3.87;1.60;;;;;;;26.59;44.89;152658.66;4952614;28;20696;-64
2023/07/08 09:45:41;;;;;;;8.30;1.97;;;;;;;26.78;44.97;152703.91;4955367;28;20229;-64
2023/07/08 09:48:16;;;;;;;8.60;2.10;;;;;;;26.77;46.70;152702.66;4953235;28;20307;-65
2023/07/08 09:50:45;;;;;;;2.97;1.70;;;;;;;26.86;45.45;152722.84;4959572;28;20758;-64
2023/07/08 09:53:14;;;;;;;4.97;1.88;;;;;;;27.01;45.31;152759.28;4945845;28;20328;-64
2023/07/08 09:55:41;;;;;;;5.22;2.08;;;;;;;27.04;45.86;152766.81;4952196;28;20233;-64
2023/07/08 09:58:13;;;;;;;4.37;1.90;;;;;;;27.03;42.99;152764.31;4954634;28;20237;-64
2023/07/08 10:00:43;;;;;;;6.60;1.80;;;;;;;26.99;43.79;152754.25;4948435;28;20228;-64
2023/07/08 10:03:18;;;;;;;5.70;1.90;;;;;;;27.09;44.51;152779.38;4952288;28;20704;-64
2023/07/08 10:05:48;;;;;;;7.73;2.17;;;;;;;27.31;44.37;152832.19;4954190;28;20236;-64
2023/07/08 10:08:18;;;;;;;3.87;2.00;;;;;;;27.22;44.15;152812.06;4946375;28;20263;-64
2023/07/08 10:10:47;;;;;;;3.45;1.70;;;;;;;27.19;44.45;152804.53;4949095;28;20308;-64
2023/07/08 10:13:21;;;;;;;7.13;2.07;;;;;;;27.22;44.01;152810.81;4946144;28;20224;-64
2023/07/08 10:15:53;;;;;;;5.63;2.13;;;;;;;27.29;42.80;152827.16;4935833;28;21094;-64
2023/07/08 10:18:29;;;;;;;2.93;1.93;;;;;;;27.43;42.54;152862.38;4938438;28;20719;-64
2023/07/08 10:21:13;;;;;;;3.67;1.50;;;;;;;27.63;41.55;152911.44;4961621;28;20236;-64
2023/07/08 10:23:49;;;;;;;5.47;1.80;;;;;;;27.56;41.76;152893.84;4952436;28;20240;-64
2023/07/08 10:26:25;;;;;;;4.38;1.92;;;;;;;27.81;42.20;152955.44;4957147;28;20584;-64
2023/07/08 10:29:09;;;;;;;2.38;1.50;;;;;;;27.88;42.18;152970.53;4964808;28;20240;-64
2023/07/08 10:31:42;;;;;;;3.90;1.58;;;;;;;27.94;40.64;152986.91;4955443;28;20231;-64
2023/07/08 10:34:25;;;;;;;6.03;1.88;;;;;;;27.91;39.77;152978.09;4958459;28;20251;-64
2023/07/08 10:37:00;;;;;;;3.15;1.98;;;;;;;28.01;39.21;153003.25;4964021;28;20242;-64
2023/07/08 10:39:48;;;;;;;4.15;1.75;;;;;;;28.28;39.70;153069.94;4956691;28;20238;-64
2023/07/08 10:42:26;;;;;;;4.53;2.00;;;;;;;28.13;40.61;153032.22;4946808;28;20242;-64
2023/07/08 10:45:01;;;;;;;4.82;1.92;;;;;;;28.22;39.56;153053.63;4958235;28;20286;-64
2023/07/08 10:47:46;;;;;;;2.42;1.55;;;;;;;28.36;40.56;153088.84;4957514;28;20247;-64
2023/07/08 10:50:30;;;;;;;5.43;1.90;;;;;;;28.55;39.66;153134.13;4950452;28;20241;-64
2023/07/08 10:53:23;;;;;;;3.72;1.88;;;;;;;28.51;38.26;153125.31;4957808;28;20236;-64
2023/07/08 10:55:56;;;;;;;4.05;1.83;;;;;;;28.47;39.42;153114.00;4960084;28;20239;-64
2023/07/08 10:58:47;;;;;;;2.63;1.80;;;;;;;28.60;39.45;153145.44;4957352;28;20236;-63
2023/07/08 11:01:27;;;;;;;2.78;1.90;;;;;;;28.53;39.28;153130.34;4955771;28;20244;-64
2023/07/08 11:04:14;;;;;;;4.32;1.90;;;;;;;28.67;38.88;153164.28;4960090;28;20231;-64
2023/07/08 11:06:48;;;;;;;2.97;2.10;;;;;;;28.80;39.83;153195.81;4957664;28;20243;-64
2023/07/08 11:09:21;;;;;;;2.72;1.95;;;;;;;28.76;37.87;153185.75;4958499;28;20302;-64
2023/07/08 11:11:54;;;;;;;7.27;2.20;;;;;;;28.81;39.44;153197.06;4943090;28;20227;-64
2023/07/08 11:14:26;;;;;;;4.55;2.10;;;;;;;28.83;38.38;153202.09;4958629;28;20809;-65
2023/07/08 11:16:58;;;;;;;3.00;1.70;;;;;;;28.99;40.00;153241.13;4962595;28;20241;-64
2023/07/08 11:19:32;;;;;;;2.50;1.80;;;;;;;29.16;37.29;153282.63;4958369;28;22134;-64
2023/07/08 11:22:03;;;;;;;5.18;1.98;;;;;;;29.20;38.45;153291.41;4948864;28;20288;-64
2023/07/08 11:24:36;;;;;;;5.78;2.17;;;;;;;29.34;37.51;153325.44;4953801;28;20589;-64
2023/07/08 11:27:08;;;;;;;3.25;1.75;;;;;;;29.06;36.90;153257.47;4962048;28;20296;-64
2023/07/08 11:29:40;;;;;;;5.65;1.83;;;;;;;29.26;37.00;153307.81;4960317;28;20585;-64
2023/07/08 11:32:12;;;;;;;4.90;2.10;;;;;;;29.35;36.24;153329.19;4957308;28;20601;-64